Time;durP1;ratioP1;P1;durP2;ratioP2;P2;SDS_P1;SDS_P2;PMS_P1;PMS_P2;Temp;Humidity;BMP_temperature;BMP_pressure;BME280_temperature;BME280_humidity;BME280_pressure;Samples;Min_cycle;Max_cycle;Signal;HPM_P1;HPM_P2
2021/10/08 00:00:38;;;;;;;29.50;19.70;;;;;;;8.35;70.11;101933.77;117062;1188;22632;-75
2021/10/08 00:03:14;;;;;;;39.00;20.50;;;;;;;8.32;70.01;101931.88;117083;1188;21971;-74
2021/10/08 00:05:44;;;;;;;41.90;21.60;;;;;;;8.29;69.95;101934.60;117060;1188;21936;-74
2021/10/08 00:08:13;;;;;;;34.20;19.70;;;;;;;8.25;69.94;101936.44;117044;1188;23560;-74
2021/10/08 00:10:43;;;;;;;29.50;19.20;;;;;;;8.23;69.93;101938.65;117106;1188;22737;-74
2021/10/08 00:13:12;;;;;;;34.80;18.80;;;;;;;8.22;69.99;101939.83;117079;1188;23512;-75
2021/10/08 00:15:41;;;;;;;29.80;18.30;;;;;;;8.19;70.00;101939.31;117062;1188;21897;-75
2021/10/08 00:18:11;;;;;;;34.50;20.90;;;;;;;8.17;69.97;101941.21;117054;1188;21885;-75
2021/10/08 00:20:40;;;;;;;37.00;21.60;;;;;;;8.17;70.05;101941.08;117060;1186;23516;-75
2021/10/08 00:23:10;;;;;;;40.70;23.10;;;;;;;8.16;69.96;101943.26;117058;1188;21886;-75
2021/10/08 00:25:40;;;;;;;45.60;25.50;;;;;;;8.14;69.94;101943.38;117122;1188;22028;-76
2021/10/08 00:28:09;;;;;;;47.70;25.70;;;;;;;8.13;69.94;101944.00;116969;1188;21919;-76
2021/10/08 00:30:38;;;;;;;37.80;24.50;;;;;;;8.11;70.00;101939.77;117062;1188;21889;-75
2021/10/08 00:33:08;;;;;;;44.50;22.30;;;;;;;8.08;69.93;101939.10;117058;1188;21883;-75
2021/10/08 00:35:38;;;;;;;37.10;21.90;;;;;;;8.06;69.94;101938.92;117083;1188;21978;-75
2021/10/08 00:38:08;;;;;;;35.00;21.00;;;;;;;8.03;69.91;101934.86;117063;1188;21879;-75
2021/10/08 00:40:41;;;;;;;37.20;20.80;;;;;;;8.01;69.99;101937.49;117111;1188;22906;-75
2021/10/08 00:43:12;;;;;;;32.90;19.30;;;;;;;7.99;69.97;101940.39;117040;1177;21896;-75
2021/10/08 00:45:42;;;;;;;32.60;20.30;;;;;;;8.00;70.06;101940.56;116994;1176;22900;-74
2021/10/08 00:48:12;;;;;;;40.50;21.50;;;;;;;8.00;69.94;101941.59;117064;1188;22904;-75
2021/10/08 00:50:45;;;;;;;32.80;19.90;;;;;;;7.99;69.93;101942.90;117059;1188;21892;-75
2021/10/08 00:53:16;;;;;;;32.80;21.20;;;;;;;7.95;69.82;101941.77;117037;1188;22715;-76
2021/10/08 00:55:51;;;;;;;35.40;20.00;;;;;;;7.91;69.67;101944.92;117055;1188;22858;-75
2021/10/08 00:58:22;;;;;;;33.80;21.70;;;;;;;7.84;69.75;101945.03;117046;1181;21899;-74
2021/10/08 01:00:52;;;;;;;34.50;22.60;;;;;;;7.81;69.93;101946.47;117005;1188;24143;-75
2021/10/08 01:03:22;;;;;;;38.20;23.00;;;;;;;7.82;70.14;101946.63;117067;1188;21954;-75
2021/10/08 01:05:52;;;;;;;32.30;22.00;;;;;;;7.80;69.97;101951.65;117050;1187;23432;-75
2021/10/08 01:08:21;;;;;;;33.70;22.80;;;;;;;7.75;69.81;101952.35;117049;1187;22620;-76
2021/10/08 01:10:51;;;;;;;31.20;20.70;;;;;;;7.70;69.85;101958.02;116913;1188;23553;-76
2021/10/08 01:13:20;;;;;;;42.30;24.70;;;;;;;7.65;69.88;101957.63;117086;1188;21930;-76
2021/10/08 01:15:54;;;;;;;42.50;22.20;;;;;;;7.62;70.05;101956.95;116834;1188;21892;-76
2021/10/08 01:18:26;;;;;;;30.90;20.40;;;;;;;7.61;70.05;101960.38;117071;1188;21867;-75
2021/10/08 01:20:57;;;;;;;39.00;20.80;;;;;;;7.58;69.98;101963.91;117111;1177;22326;-75
2021/10/08 01:23:26;;;;;;;35.40;21.30;;;;;;;7.54;70.02;101967.34;117050;1188;21896;-74
2021/10/08 01:25:57;;;;;;;32.30;20.60;;;;;;;7.52;70.05;101965.18;116809;1190;22204;-74
2021/10/08 01:28:29;;;;;;;44.20;23.20;;;;;;;7.48;70.06;101967.46;116756;1191;21877;-74
2021/10/08 01:31:01;;;;;;;44.10;22.70;;;;;;;7.45;70.24;101968.50;116835;1190;23920;-74
2021/10/08 01:33:47;;;;;;;32.30;21.20;;;;;;;7.43;70.24;101966.03;116829;1187;21898;-74
2021/10/08 01:36:17;;;;;;;39.00;21.00;;;;;;;7.40;70.15;101968.85;116894;1190;21874;-75
2021/10/08 01:38:47;;;;;;;28.60;20.00;;;;;;;7.41;70.34;101970.05;116754;1190;21909;-75
2021/10/08 01:41:17;;;;;;;37.20;21.50;;;;;;;7.39;70.25;101968.92;116795;1187;21886;-75
2021/10/08 01:43:49;;;;;;;40.00;21.70;;;;;;;7.36;70.21;101965.84;116802;1188;23533;-75
2021/10/08 01:46:19;;;;;;;34.90;21.10;;;;;;;7.32;70.13;101963.99;116982;1187;22621;-75
2021/10/08 01:48:49;;;;;;;44.70;21.00;;;;;;;7.29;70.08;101963.14;116955;1188;23610;-75
2021/10/08 01:51:20;;;;;;;28.90;18.90;;;;;;;7.25;70.14;101963.08;117051;1188;21911;-75
2021/10/08 01:53:50;;;;;;;40.40;20.40;;;;;;;7.22;70.23;101967.33;117032;1180;21983;-75
2021/10/08 01:56:19;;;;;;;38.10;20.60;;;;;;;7.20;70.25;101967.14;117054;1188;22633;-75
2021/10/08 01:58:54;;;;;;;33.30;21.50;;;;;;;7.18;70.24;101971.69;117079;1188;22969;-75
2021/10/08 02:01:24;;;;;;;32.60;19.90;;;;;;;7.15;70.29;101969.04;117038;1188;23606;-75
2021/10/08 02:03:56;;;;;;;31.60;19.30;;;;;;;7.12;70.27;101966.80;117050;1188;21890;-75
2021/10/08 02:06:27;;;;;;;39.20;20.80;;;;;;;7.10;70.21;101968.01;117054;1188;23572;-76
2021/10/08 02:08:56;;;;;;;39.60;23.80;;;;;;;7.07;70.26;101969.27;117030;1188;21890;-74
2021/10/08 02:11:27;;;;;;;37.40;22.00;;;;;;;7.06;70.35;101971.55;117063;1187;21961;-75
2021/10/08 02:13:57;;;;;;;37.60;20.60;;;;;;;7.05;70.33;101973.38;116973;1188;23573;-75
2021/10/08 02:16:27;;;;;;;40.50;23.30;;;;;;;7.04;70.39;101974.50;117061;1189;21917;-75
2021/10/08 02:19:04;;;;;;;31.00;20.40;;;;;;;7.04;70.41;101969.75;116967;1188;21904;-74
2021/10/08 02:21:35;;;;;;;34.80;22.10;;;;;;;7.05;70.44;101969.54;117097;1188;21890;-74
2021/10/08 02:24:06;;;;;;;40.20;21.30;;;;;;;7.03;70.29;101968.46;116968;1188;21920;-74
2021/10/08 02:26:38;;;;;;;30.60;20.40;;;;;;;7.02;70.44;101971.28;117079;1180;21988;-74
2021/10/08 02:29:07;;;;;;;28.60;20.70;;;;;;;7.04;70.64;101972.04;116967;1189;23461;-75
2021/10/08 02:31:37;;;;;;;47.40;24.80;;;;;;;7.06;70.54;101977.33;117009;1188;22904;-75
2021/10/08 02:34:07;;;;;;;36.10;21.30;;;;;;;7.02;70.16;101977.13;117124;1187;21881;-75
2021/10/08 02:36:37;;;;;;;37.10;25.20;;;;;;;6.96;70.09;101980.14;117117;1186;22327;-75
2021/10/08 02:39:07;;;;;;;41.80;24.90;;;;;;;6.95;70.25;101981.64;117146;1188;21876;-75
2021/10/08 02:41:37;;;;;;;38.50;23.40;;;;;;;6.92;70.18;101985.98;117159;1188;21938;-75
2021/10/08 02:44:07;;;;;;;44.20;25.00;;;;;;;6.89;70.17;101990.10;116924;1188;22912;-75
2021/10/08 02:46:41;;;;;;;36.50;23.10;;;;;;;6.84;70.23;101995.32;117062;1179;22909;-75
2021/10/08 02:49:10;;;;;;;39.00;20.70;;;;;;;6.78;70.15;101995.71;117073;1188;21923;-75
2021/10/08 02:51:41;;;;;;;28.50;21.10;;;;;;;6.71;70.16;101998.80;117072;1188;21954;-75
2021/10/08 02:54:11;;;;;;;29.70;20.50;;;;;;;6.65;70.10;101997.34;117050;1188;22932;-75
2021/10/08 02:56:40;;;;;;;28.00;21.10;;;;;;;6.60;70.32;101997.81;117100;1188;22835;-75
2021/10/08 02:59:09;;;;;;;34.60;20.40;;;;;;;6.58;70.38;102000.55;116978;1188;21891;-75
2021/10/08 03:01:39;;;;;;;29.80;19.50;;;;;;;6.54;70.50;101996.94;117039;1188;22908;-75
2021/10/08 03:04:08;;;;;;;35.90;19.50;;;;;;;6.52;70.47;101998.31;117055;1187;21883;-75
2021/10/08 03:06:38;;;;;;;32.90;20.70;;;;;;;6.51;70.50;101997.69;117069;1187;22945;-75
2021/10/08 03:09:09;;;;;;;33.60;21.00;;;;;;;6.50;70.56;102003.19;117037;1188;22915;-75
2021/10/08 03:11:38;;;;;;;32.30;20.20;;;;;;;6.47;70.48;102000.23;117011;1188;21892;-75
2021/10/08 03:14:08;;;;;;;27.80;19.70;;;;;;;6.46;70.59;101999.83;117058;1188;21909;-74
2021/10/08 03:16:38;;;;;;;33.70;21.10;;;;;;;6.45;70.77;102001.80;116988;1188;21879;-74
2021/10/08 03:19:07;;;;;;;30.80;20.10;;;;;;;6.44;70.81;102004.30;117070;1188;22840;-75
2021/10/08 03:21:36;;;;;;;33.50;21.00;;;;;;;6.43;70.87;102007.16;116978;1188;23532;-74
2021/10/08 03:24:06;;;;;;;29.80;21.20;;;;;;;6.40;70.84;102006.48;117087;1188;21908;-74
2021/10/08 03:26:36;;;;;;;34.70;20.90;;;;;;;6.37;70.79;102002.13;116978;1180;23595;-74
2021/10/08 03:29:08;;;;;;;34.20;20.90;;;;;;;6.32;70.75;102003.30;116771;1192;23462;-73
2021/10/08 03:31:38;;;;;;;34.00;20.60;;;;;;;6.28;70.80;102004.15;116773;1192;24194;-73
2021/10/08 03:34:08;;;;;;;33.60;20.50;;;;;;;6.24;70.80;102004.73;116783;1191;22117;-74
2021/10/08 03:36:50;;;;;;;27.70;19.40;;;;;;;6.20;70.88;102004.79;116703;1192;23544;-73
2021/10/08 03:39:29;;;;;;;35.90;19.70;;;;;;;6.15;70.93;102004.77;116759;1192;22881;-74
2021/10/08 03:41:58;;;;;;;31.80;21.10;;;;;;;6.10;70.95;102006.44;116761;1192;21888;-74
2021/10/08 03:44:32;;;;;;;31.70;21.40;;;;;;;6.06;71.01;102008.67;116724;1192;23542;-73
2021/10/08 03:47:03;;;;;;;33.30;22.60;;;;;;;6.01;71.06;102009.68;116844;1188;22652;-74
2021/10/08 03:49:32;;;;;;;38.40;21.90;;;;;;;6.00;71.13;102008.02;117122;1188;21866;-74
2021/10/08 03:52:01;;;;;;;40.10;23.90;;;;;;;5.97;71.07;102010.10;117047;1188;23538;-74
2021/10/08 03:54:31;;;;;;;33.20;22.60;;;;;;;5.97;71.24;102010.48;117063;1188;21882;-74
2021/10/08 03:57:02;;;;;;;31.50;21.60;;;;;;;5.96;71.34;102011.25;117064;1188;21894;-75
2021/10/08 03:59:31;;;;;;;35.30;21.20;;;;;;;5.96;71.42;102016.49;117107;1186;21902;-74
2021/10/08 04:02:00;;;;;;;33.70;22.50;;;;;;;5.93;71.32;102020.18;117087;1189;21890;-74
2021/10/08 04:04:30;;;;;;;37.60;21.40;;;;;;;5.90;71.30;102021.91;117111;1188;23448;-75
2021/10/08 04:07:00;;;;;;;38.20;21.10;;;;;;;5.87;71.34;102022.23;116911;1188;21887;-75
2021/10/08 04:09:30;;;;;;;33.90;22.40;;;;;;;5.86;71.39;102022.31;117104;1189;21975;-75
2021/10/08 04:12:00;;;;;;;31.10;21.30;;;;;;;5.84;71.38;102018.39;117065;1188;21940;-75
2021/10/08 04:14:31;;;;;;;36.40;24.10;;;;;;;5.82;71.37;102018.71;116994;1188;21902;-75
2021/10/08 04:17:02;;;;;;;32.10;22.20;;;;;;;5.79;71.41;102019.94;117103;1180;23608;-74
2021/10/08 04:19:31;;;;;;;31.60;21.90;;;;;;;5.77;71.39;102026.72;117111;1188;23474;-74
2021/10/08 04:22:01;;;;;;;38.80;21.40;;;;;;;5.74;71.26;102028.88;117072;1188;21881;-74
2021/10/08 04:24:31;;;;;;;31.50;21.30;;;;;;;5.67;71.28;102026.83;117105;1183;21889;-75
2021/10/08 04:27:02;;;;;;;35.40;21.10;;;;;;;5.64;71.45;102025.05;117110;1188;23140;-74
2021/10/08 04:29:32;;;;;;;35.80;21.80;;;;;;;5.62;71.44;102027.83;117103;1181;22435;-75
2021/10/08 04:32:01;;;;;;;37.10;22.20;;;;;;;5.58;71.38;102028.27;117106;1184;22922;-74
2021/10/08 04:34:31;;;;;;;29.90;20.20;;;;;;;5.55;71.49;102032.23;117118;1187;22364;-73
2021/10/08 04:37:00;;;;;;;34.50;23.30;;;;;;;5.53;71.48;102036.95;117069;1188;24838;-73
2021/10/08 04:39:30;;;;;;;28.30;21.10;;;;;;;5.50;71.49;102041.67;117213;1187;22245;-73
2021/10/08 04:41:59;;;;;;;51.00;26.20;;;;;;;5.47;71.58;102049.88;117107;1188;23263;-74
2021/10/08 04:44:32;;;;;;;43.20;25.40;;;;;;;5.45;71.64;102052.98;117190;1187;21910;-73
2021/10/08 04:47:03;;;;;;;36.20;22.10;;;;;;;5.44;71.68;102053.92;117078;1188;22315;-73
2021/10/08 04:49:33;;;;;;;34.40;20.50;;;;;;;5.43;71.75;102052.91;117164;1188;21933;-73
2021/10/08 04:52:02;;;;;;;32.30;21.00;;;;;;;5.41;71.68;102057.59;117090;1188;21924;-73
2021/10/08 04:54:32;;;;;;;33.30;21.60;;;;;;;5.39;71.68;102057.19;117091;1188;21891;-73
2021/10/08 04:57:02;;;;;;;37.20;23.20;;;;;;;5.37;71.72;102055.90;117120;1188;23433;-73
2021/10/08 04:59:32;;;;;;;37.60;24.70;;;;;;;5.35;71.76;102053.91;117126;1187;21908;-73
2021/10/08 05:02:02;;;;;;;38.90;24.20;;;;;;;5.33;71.75;102059.45;117081;1188;22296;-74
2021/10/08 05:04:32;;;;;;;33.80;23.20;;;;;;;5.33;71.85;102062.25;117078;1187;22440;-75
2021/10/08 05:07:02;;;;;;;34.40;22.30;;;;;;;5.32;71.80;102061.98;117242;1187;22925;-75
2021/10/08 05:09:31;;;;;;;37.50;22.20;;;;;;;5.32;71.84;102068.64;117110;1188;23458;-74
2021/10/08 05:12:03;;;;;;;;;;;;;;;5.32;71.81;102071.75;117113;1188;23441;-74
2021/10/08 05:14:33;;;;;;;36.50;22.30;;;;;;;5.25;71.84;102074.30;117186;1188;21887;-74
2021/10/08 05:17:02;;;;;;;29.30;21.40;;;;;;;5.21;71.89;102073.98;116887;1190;23694;-75
2021/10/08 05:19:32;;;;;;;27.90;21.20;;;;;;;5.22;71.98;102073.63;116792;1190;21909;-75
2021/10/08 05:22:08;;;;;;;32.60;22.20;;;;;;;5.21;71.99;102080.27;116510;1187;21884;-74
2021/10/08 05:24:38;;;;;;;32.50;23.20;;;;;;;5.20;71.93;102085.08;116485;1194;21929;-74
2021/10/08 05:27:11;;;;;;;31.40;22.40;;;;;;;5.19;71.87;102084.23;116418;1194;22007;-74
2021/10/08 05:29:41;;;;;;;37.10;25.80;;;;;;;5.17;71.88;102085.55;116449;1194;22920;-74
2021/10/08 05:32:13;;;;;;;35.60;25.30;;;;;;;5.17;72.01;102081.58;116428;1193;22372;-75
2021/10/08 05:34:43;;;;;;;43.10;28.40;;;;;;;5.17;71.99;102081.04;116377;1192;21882;-74
2021/10/08 05:37:13;;;;;;;39.00;26.70;;;;;;;5.17;72.07;102087.48;116696;1191;24013;-73
2021/10/08 05:39:44;;;;;;;42.40;27.60;;;;;;;5.19;72.10;102091.73;116794;1180;21952;-73
2021/10/08 05:42:13;;;;;;;38.00;27.30;;;;;;;5.22;72.28;102090.69;117004;1188;23666;-74
2021/10/08 05:44:43;;;;;;;39.80;24.30;;;;;;;5.29;72.46;102088.21;117125;1188;24208;-76
2021/10/08 05:47:13;;;;;;;37.90;24.90;;;;;;;5.33;72.35;102091.63;117099;1188;24235;-75
2021/10/08 05:49:42;;;;;;;37.70;25.00;;;;;;;5.35;72.22;102098.51;117049;1187;21895;-74
2021/10/08 05:52:12;;;;;;;39.80;25.50;;;;;;;5.37;72.20;102107.60;117004;1188;22849;-74
2021/10/08 05:54:41;;;;;;;50.00;27.90;;;;;;;5.39;72.05;102112.36;117071;1188;22856;-74
2021/10/08 05:57:10;;;;;;;39.00;24.60;;;;;;;5.40;71.96;102115.99;117047;1187;23598;-75
2021/10/08 05:59:41;;;;;;;52.70;28.00;;;;;;;5.43;72.02;102116.38;117008;1188;23596;-75
2021/10/08 06:02:11;;;;;;;42.30;27.10;;;;;;;5.45;71.95;102121.66;117048;1188;23457;-75
2021/10/08 06:04:41;;;;;;;32.50;24.60;;;;;;;5.50;72.04;102125.75;117048;1188;23470;-75
2021/10/08 06:07:10;;;;;;;40.40;22.40;;;;;;;5.55;72.00;102125.42;117054;1188;21877;-75
2021/10/08 06:09:45;;;;;;;30.40;21.70;;;;;;;5.60;71.90;102123.02;117135;1187;22902;-74
2021/10/08 06:12:15;;;;;;;27.70;19.80;;;;;;;5.64;71.79;102130.46;116762;1191;22880;-75
2021/10/08 06:14:44;;;;;;;32.30;21.00;;;;;;;5.70;71.82;102129.06;116795;1191;21897;-76
2021/10/08 06:17:13;;;;;;;29.20;18.90;;;;;;;5.78;71.81;102128.79;116788;1190;22663;-78
2021/10/08 06:19:43;;;;;;;32.20;18.80;;;;;;;5.84;71.70;102131.01;116918;1187;24151;-79
2021/10/08 06:22:12;;;;;;;24.90;18.20;;;;;;;5.83;71.18;102128.96;116829;1191;21966;-77
2021/10/08 06:24:42;;;;;;;23.30;18.60;;;;;;;5.79;71.08;102133.23;116785;1191;22950;-76
2021/10/08 06:27:11;;;;;;;29.70;18.90;;;;;;;5.80;71.20;102141.58;116874;1190;22362;-78
2021/10/08 06:29:40;;;;;;;32.00;20.00;;;;;;;5.82;71.14;102141.96;116823;1188;21887;-78
2021/10/08 06:32:10;;;;;;;34.50;18.70;;;;;;;5.85;71.05;102142.84;117145;1188;23169;-77
2021/10/08 06:34:40;;;;;;;24.00;16.90;;;;;;;5.90;71.04;102146.77;117132;1187;21915;-78
2021/10/08 06:37:09;;;;;;;27.70;17.30;;;;;;;5.98;71.02;102148.73;117002;1188;23971;-77
2021/10/08 06:39:39;;;;;;;28.20;17.60;;;;;;;6.04;70.84;102151.48;117054;1188;22636;-76
2021/10/08 06:42:09;;;;;;;32.20;16.20;;;;;;;6.12;70.75;102149.59;117091;1187;22631;-77
2021/10/08 06:44:39;;;;;;;31.50;15.60;;;;;;;6.23;70.77;102151.95;117081;1188;21913;-77
2021/10/08 06:47:09;;;;;;;33.60;15.60;;;;;;;6.34;70.58;102158.23;117113;1184;21866;-78
2021/10/08 06:49:39;;;;;;;30.40;16.00;;;;;;;6.46;70.48;102159.05;117157;1187;22230;-78
2021/10/08 06:52:09;;;;;;;25.50;16.00;;;;;;;6.60;70.48;102164.42;117075;1188;23439;-76
2021/10/08 06:54:38;;;;;;;30.60;17.00;;;;;;;6.78;70.47;102162.59;117110;1188;23648;-76
2021/10/08 06:57:09;;;;;;;20.30;14.40;;;;;;;6.97;70.26;102164.67;117056;1188;21928;-76
2021/10/08 06:59:38;;;;;;;24.80;16.20;;;;;;;7.17;70.03;102168.30;117054;1185;21878;-76
2021/10/08 07:02:08;;;;;;;32.00;16.10;;;;;;;7.39;69.84;102168.95;116745;1191;21915;-77
2021/10/08 07:04:38;;;;;;;25.60;16.20;;;;;;;7.65;69.73;102168.92;116802;1188;22157;-76
2021/10/08 07:07:07;;;;;;;32.60;15.70;;;;;;;7.96;69.41;102166.13;116771;1191;21901;-76
2021/10/08 07:09:53;;;;;;;22.00;15.70;;;;;;;8.39;68.91;102168.20;116489;1194;21895;-76
2021/10/08 07:12:22;;;;;;;20.40;14.70;;;;;;;8.74;68.23;102174.11;116434;1194;24157;-76
2021/10/08 07:14:52;;;;;;;24.30;15.10;;;;;;;9.05;66.97;102178.23;116481;1194;22073;-77
2021/10/08 07:17:45;;;;;;;26.40;16.20;;;;;;;9.38;66.31;102174.83;116428;1194;23720;-77
2021/10/08 07:20:21;;;;;;;23.20;13.90;;;;;;;9.74;65.67;102185.84;116358;1193;21894;-76
2021/10/08 07:22:52;;;;;;;28.60;16.00;;;;;;;10.05;64.21;102188.40;116420;1195;22787;-77
2021/10/08 07:25:27;;;;;;;29.60;14.80;;;;;;;10.29;63.06;102186.14;116383;1193;22195;-77
2021/10/08 07:27:57;;;;;;;24.70;15.00;;;;;;;10.52;62.28;102187.73;116394;1193;21894;-74
2021/10/08 07:30:27;;;;;;;21.50;14.90;;;;;;;10.75;61.29;102188.87;116665;1190;22864;-75
2021/10/08 07:32:56;;;;;;;28.70;15.40;;;;;;;10.86;59.67;102190.46;116460;1193;21884;-75
2021/10/08 07:35:26;;;;;;;28.50;14.40;;;;;;;11.03;59.79;102191.19;116642;1193;23551;-76
2021/10/08 07:37:55;;;;;;;24.70;14.30;;;;;;;11.26;59.34;102195.60;116479;1190;21892;-76
2021/10/08 07:40:24;;;;;;;24.80;14.30;;;;;;;11.45;58.19;102198.05;116845;1188;21913;-75
2021/10/08 07:42:54;;;;;;;22.50;13.80;;;;;;;11.49;57.04;102198.59;117034;1188;22951;-75
2021/10/08 07:45:23;;;;;;;21.50;13.00;;;;;;;11.60;56.96;102199.83;117051;1188;22650;-78
2021/10/08 07:47:53;;;;;;;20.10;13.60;;;;;;;11.75;56.64;102196.05;117111;1188;23430;-79
2021/10/08 07:50:22;;;;;;;24.90;13.70;;;;;;;11.95;56.46;102195.83;116842;1190;23474;-79
2021/10/08 07:52:51;;;;;;;18.20;12.70;;;;;;;12.15;55.94;102200.23;116961;1190;22919;-79
2021/10/08 07:55:20;;;;;;;18.60;12.30;;;;;;;12.14;54.06;102200.19;117004;1187;22809;-79
2021/10/08 07:57:50;;;;;;;20.50;12.40;;;;;;;12.13;54.38;102197.64;116850;1190;21996;-79
2021/10/08 08:00:19;;;;;;;20.90;12.60;;;;;;;12.25;54.82;102201.89;116520;1192;21888;-77
2021/10/08 08:02:49;;;;;;;18.40;11.60;;;;;;;12.52;54.75;102204.63;116554;1192;21972;-79
2021/10/08 08:05:23;;;;;;;23.50;13.10;;;;;;;12.71;54.05;102208.44;116693;1192;22981;-79
2021/10/08 08:07:52;;;;;;;28.50;12.50;;;;;;;12.90;53.60;102205.37;116504;1192;23025;-80
2021/10/08 08:10:22;;;;;;;23.90;12.60;;;;;;;13.07;53.06;102205.74;116779;1191;21885;-79
2021/10/08 08:12:56;;;;;;;18.40;10.60;;;;;;;13.18;52.35;102203.63;116832;1192;22640;-79
2021/10/08 08:15:28;;;;;;;20.10;12.50;;;;;;;13.19;51.31;102204.27;116962;1193;21897;-80
2021/10/08 08:18:01;;;;;;;22.10;10.60;;;;;;;13.15;50.93;102200.55;116745;1192;21922;-80
2021/10/08 08:20:33;;;;;;;22.30;9.60;;;;;;;13.20;51.35;102202.12;116683;1194;21912;-79
2021/10/08 08:23:03;;;;;;;30.40;9.30;;;;;;;13.33;50.82;102203.23;116436;1194;22653;-79
2021/10/08 08:25:32;;;;;;;23.80;10.50;;;;;;;13.32;49.80;102204.89;116420;1192;24161;-79
2021/10/08 08:28:02;;;;;;;17.10;9.10;;;;;;;13.28;49.56;102199.11;116248;1192;22871;-78
2021/10/08 08:30:36;;;;;;;26.20;8.90;;;;;;;13.35;50.05;102200.19;116401;1195;23563;-77
2021/10/08 08:33:06;;;;;;;21.50;8.90;;;;;;;13.46;49.37;102198.33;116366;1194;22271;-77
2021/10/08 08:35:36;;;;;;;21.10;8.50;;;;;;;13.51;48.92;102200.34;116466;1191;21875;-77
2021/10/08 08:38:09;;;;;;;26.00;8.90;;;;;;;13.49;47.98;102202.09;116684;1191;21899;-78
2021/10/08 08:40:44;;;;;;;18.50;8.80;;;;;;;13.43;48.07;102206.91;116523;1190;21897;-79
2021/10/08 08:43:18;;;;;;;23.20;8.80;;;;;;;13.49;48.30;102204.20;116534;1190;22665;-79
2021/10/08 08:45:47;;;;;;;18.90;8.40;;;;;;;13.58;47.72;102205.88;116777;1191;21904;-83
2021/10/08 08:48:23;;;;;;;19.30;8.70;;;;;;;13.57;46.93;102206.81;116783;1191;21907;-78
2021/10/08 08:50:53;;;;;;;21.60;7.90;;;;;;;13.47;46.69;102204.73;116805;1188;21975;-77
2021/10/08 08:53:23;;;;;;;19.20;8.40;;;;;;;13.38;46.67;102208.63;116791;1190;22355;-76
2021/10/08 08:55:52;;;;;;;21.20;8.90;;;;;;;13.23;46.64;102205.72;116798;1191;23438;-77
2021/10/08 08:58:22;;;;;;;16.90;8.00;;;;;;;13.07;46.81;102206.48;116507;1190;23745;-77
2021/10/08 09:01:01;;;;;;;18.70;8.10;;;;;;;13.02;47.25;102206.21;116493;1192;22379;-78
2021/10/08 09:03:30;;;;;;;23.60;8.20;;;;;;;13.02;47.09;102204.36;116459;1193;23560;-78
2021/10/08 09:06:00;;;;;;;20.30;8.90;;;;;;;13.02;47.56;102204.20;116318;1193;21910;-78
2021/10/08 09:08:35;;;;;;;22.20;9.20;;;;;;;13.08;47.39;102199.81;116203;1196;21903;-78
2021/10/08 09:11:05;;;;;;;21.30;9.30;;;;;;;13.08;47.16;102198.72;116344;1193;21955;-78
2021/10/08 09:13:34;;;;;;;22.80;8.00;;;;;;;13.08;47.01;102200.84;116523;1190;22416;-77
2021/10/08 09:16:04;;;;;;;28.20;8.30;;;;;;;13.08;46.97;102201.91;116494;1192;23716;-78
2021/10/08 09:18:37;;;;;;;21.70;8.60;;;;;;;13.09;47.23;102196.73;116783;1191;21996;-77
2021/10/08 09:21:11;;;;;;;22.20;8.40;;;;;;;13.17;46.96;102199.47;116822;1192;23491;-78
2021/10/08 09:23:47;;;;;;;18.70;8.20;;;;;;;13.23;46.67;102200.77;116842;1191;23597;-76
2021/10/08 09:26:25;;;;;;;23.00;9.60;;;;;;;13.27;46.38;102194.53;116800;1190;21910;-78
2021/10/08 09:29:01;;;;;;;20.30;8.60;;;;;;;13.34;46.36;102195.10;116620;1186;21904;-77
2021/10/08 09:31:36;;;;;;;19.50;8.00;;;;;;;13.40;45.59;102193.89;116949;1189;22634;-77
2021/10/08 09:34:21;;;;;;;17.00;7.10;;;;;;;13.40;45.29;102197.60;117042;1188;21924;-78
2021/10/08 09:37:00;;;;;;;20.20;7.50;;;;;;;13.46;45.42;102188.05;117095;1185;21891;-82
2021/10/08 09:39:33;;;;;;;17.90;8.70;;;;;;;13.62;45.51;102183.71;116862;1188;22924;-79
2021/10/08 09:42:05;;;;;;;22.00;8.00;;;;;;;13.84;45.15;102184.17;116903;1188;21921;-79
2021/10/08 09:44:43;;;;;;;;;;;;;;;14.04;44.87;102188.84;117140;1185;21891;-79
2021/10/08 09:47:24;;;;;;;20.10;7.60;;;;;;;14.09;44.22;102190.95;116756;1191;21885;-79
2021/10/08 09:50:12;;;;;;;25.40;8.50;;;;;;;14.11;43.95;102185.80;116733;1185;21944;-78
2021/10/08 09:52:41;;;;;;;19.70;7.50;;;;;;;14.23;44.28;102178.88;116498;1187;23713;-79
2021/10/08 09:55:12;;;;;;;13.10;7.80;;;;;;;14.41;43.92;102185.09;116498;1193;22314;-78
2021/10/08 09:57:47;;;;;;;19.80;7.90;;;;;;;14.54;43.62;102180.86;116569;1193;21946;-78
2021/10/08 10:00:43;;;;;;;38.90;9.20;;;;;;;14.78;43.88;102178.98;116514;1193;21942;-79
2021/10/08 10:03:18;;;;;;;15.00;6.70;;;;;;;15.03;42.89;102180.08;116376;1196;23435;-78
2021/10/08 10:05:47;;;;;;;17.70;7.60;;;;;;;15.13;42.19;102180.37;116454;1193;21901;-79
2021/10/08 10:08:16;;;;;;;16.00;7.60;;;;;;;15.17;41.58;102184.92;116498;1193;23543;-79
2021/10/08 10:10:47;;;;;;;21.40;7.70;;;;;;;15.16;41.59;102187.67;116552;1193;21878;-78
2021/10/08 10:13:17;;;;;;;17.50;6.60;;;;;;;15.25;41.49;102184.45;116508;1187;21917;-79
2021/10/08 10:15:48;;;;;;;11.90;6.30;;;;;;;15.40;40.92;102186.01;116578;1187;23565;-79
2021/10/08 10:18:20;;;;;;;20.80;6.70;;;;;;;15.50;40.35;102192.55;116491;1190;22878;-78
2021/10/08 10:20:52;;;;;;;22.30;6.60;;;;;;;15.56;39.41;102190.45;116535;1194;21910;-79
2021/10/08 10:23:23;;;;;;;15.50;7.00;;;;;;;15.54;39.11;102189.33;116527;1194;21927;-78
2021/10/08 10:25:53;;;;;;;20.60;6.80;;;;;;;15.54;39.33;102181.00;116540;1194;22971;-78
2021/10/08 10:28:22;;;;;;;14.90;5.90;;;;;;;15.59;38.93;102180.33;116501;1190;22944;-78
2021/10/08 10:30:52;;;;;;;10.80;6.50;;;;;;;15.67;38.83;102180.58;116724;1190;22141;-78
2021/10/08 10:33:28;;;;;;;24.30;7.40;;;;;;;15.76;38.58;102176.33;116716;1193;21895;-78
2021/10/08 10:36:02;;;;;;;14.90;6.00;;;;;;;15.83;38.16;102175.73;116551;1193;21902;-79
2021/10/08 10:38:40;;;;;;;17.30;7.60;;;;;;;16.01;38.77;102176.35;116771;1184;22921;-78
2021/10/08 10:41:09;;;;;;;13.90;5.60;;;;;;;16.32;38.69;102175.23;116708;1191;21930;-76
2021/10/08 10:43:45;;;;;;;14.30;5.90;;;;;;;16.65;37.85;102183.91;116831;1191;21900;-77
2021/10/08 10:49:57;;;;;;;19.60;5.90;;;;;;;16.61;36.14;102181.84;116777;1192;21901;-76
2021/10/08 10:52:08;;;;;;;16.30;6.50;;;;;;;16.60;35.56;102181.73;116680;1193;21908;-77
2021/10/08 10:54:37;;;;;;;17.90;6.40;;;;;;;16.42;34.98;102182.09;116603;1193;21942;-77
2021/10/08 10:57:32;;;;;;;16.30;6.10;;;;;;;16.13;35.40;102179.27;116732;1192;21954;-76
2021/10/08 11:00:41;;;;;;;13.70;6.50;;;;;;;15.91;35.92;102179.73;116503;1189;23464;-78
2021/10/08 11:03:31;;;;;;;17.30;6.10;;;;;;;15.59;35.87;102175.23;116445;1193;22871;-78
2021/10/08 11:06:28;;;;;;;16.40;6.70;;;;;;;15.37;36.81;102177.44;116589;1194;22319;-81
2021/10/08 11:09:09;;;;;;;20.70;6.80;;;;;;;15.29;37.08;102176.73;116775;1193;21919;-78
2021/10/08 11:11:39;;;;;;;14.40;5.90;;;;;;;15.13;36.92;102176.60;116918;1190;22923;-78
2021/10/08 11:14:20;;;;;;;19.60;7.40;;;;;;;14.87;37.11;102173.14;116535;1193;22034;-78
2021/10/08 11:16:53;;;;;;;21.30;6.90;;;;;;;14.65;37.83;102182.39;116703;1193;22411;-78
2021/10/08 11:19:40;;;;;;;17.70;6.80;;;;;;;14.43;37.80;102175.34;116803;1193;21902;-79
2021/10/08 11:22:09;;;;;;;16.00;6.30;;;;;;;14.21;38.21;102172.79;116515;1192;22522;-78
2021/10/08 11:24:39;;;;;;;11.50;6.10;;;;;;;14.08;38.64;102171.73;116518;1193;22209;-78
2021/10/08 11:27:08;;;;;;;17.10;7.10;;;;;;;14.01;38.91;102175.84;116534;1193;22354;-78
2021/10/08 11:29:40;;;;;;;16.40;5.80;;;;;;;13.95;39.18;102175.70;116504;1193;22013;-80
2021/10/08 11:32:11;;;;;;;;;;;;;;;13.93;39.10;102178.73;116353;1197;21898;-78